Main page
METAR-TAF:

METAR-TAF

Airports :

Southampton Airport

Southampton, England

latitude: 50-54N, longitude: 001-24W, elevation: 9 m

Current weather observation

The report was made 27 minutes ago, at 18:20 UTC
Wind 6 kt from the West/Southwest, varying between South/Southwest and West
Temperature 12°C
Humidity 88%
Pressure 1001 hPa
Visibility 10 km or more
Broken clouds at a height of 2200 ft

METAR: EGHI 211820Z 24006KT 210V270 9999 BKN022 12/10 Q1001

Time: 18:47 (18:47 UTC)

Forecast

The report was made 1 hour and 49 minutes ago, at 16:58 UTC
Forecast valid from 21 at 18 UTC to 21 at 23 UTC
Wind 7 kt from the West
Visibility 10 km or more
Few clouds at a height of 2000 ft

TAF: EGHI 211658Z 2118/2123 27007KT 9999 FEW020

Weather observations and forecasts of more than 4000 airports (METAR and TAF reports).

The available stations are represented by yellow and red dots on the map.

Hover mouse over dot to see the name of the station.

Then click to see weather observations and forecasts.

To change the map : click on the green buttons with a black cross to zoom in, on the green button with a dash to zoom out, or on the green arrows for adjacent maps.


METAR-TAF: